sensor_id;sensor_type;location;lat;lon;timestamp;P1;durP1;ratioP1;P2;durP2;ratioP2
6785;SDS011;3430;51.192;6.048;2023-04-06T00:01:50;2.97;;;2.70;;
6785;SDS011;3430;51.192;6.048;2023-04-06T00:04:16;3.60;;;3.23;;
6785;SDS011;3430;51.192;6.048;2023-04-06T00:06:41;4.17;;;3.17;;
6785;SDS011;3430;51.192;6.048;2023-04-06T00:09:07;3.83;;;2.80;;
6785;SDS011;3430;51.192;6.048;2023-04-06T00:11:32;3.30;;;3.00;;
6785;SDS011;3430;51.192;6.048;2023-04-06T00:13:57;3.63;;;3.00;;
6785;SDS011;3430;51.192;6.048;2023-04-06T00:16:23;3.33;;;3.00;;
6785;SDS011;3430;51.192;6.048;2023-04-06T00:18:48;4.23;;;3.10;;
6785;SDS011;3430;51.192;6.048;2023-04-06T00:21:14;3.20;;;2.93;;
6785;SDS011;3430;51.192;6.048;2023-04-06T00:23:40;3.43;;;2.80;;
6785;SDS011;3430;51.192;6.048;2023-04-06T00:26:05;4.33;;;3.13;;
6785;SDS011;3430;51.192;6.048;2023-04-06T00:28:30;3.87;;;3.37;;
6785;SDS011;3430;51.192;6.048;2023-04-06T00:30:56;3.27;;;2.90;;
6785;SDS011;3430;51.192;6.048;2023-04-06T00:33:21;2.97;;;2.70;;
6785;SDS011;3430;51.192;6.048;2023-04-06T00:35:47;3.30;;;2.70;;
6785;SDS011;3430;51.192;6.048;2023-04-06T00:38:12;4.90;;;3.07;;
6785;SDS011;3430;51.192;6.048;2023-04-06T00:40:38;4.33;;;3.17;;
6785;SDS011;3430;51.192;6.048;2023-04-06T00:43:05;3.43;;;2.80;;
6785;SDS011;3430;51.192;6.048;2023-04-06T00:45:30;3.07;;;2.77;;
6785;SDS011;3430;51.192;6.048;2023-04-06T00:47:55;3.00;;;2.70;;
6785;SDS011;3430;51.192;6.048;2023-04-06T00:50:21;2.83;;;2.63;;
6785;SDS011;3430;51.192;6.048;2023-04-06T00:52:46;2.80;;;2.60;;
6785;SDS011;3430;51.192;6.048;2023-04-06T00:55:11;3.40;;;2.90;;
6785;SDS011;3430;51.192;6.048;2023-04-06T00:57:37;3.33;;;3.03;;
6785;SDS011;3430;51.192;6.048;2023-04-06T01:00:03;5.23;;;2.90;;
6785;SDS011;3430;51.192;6.048;2023-04-06T01:02:28;3.27;;;2.93;;
6785;SDS011;3430;51.192;6.048;2023-04-06T01:04:54;4.03;;;2.80;;
6785;SDS011;3430;51.192;6.048;2023-04-06T01:07:19;5.30;;;3.20;;
6785;SDS011;3430;51.192;6.048;2023-04-06T01:09:45;3.37;;;3.07;;
6785;SDS011;3430;51.192;6.048;2023-04-06T01:12:10;3.60;;;3.20;;
6785;SDS011;3430;51.192;6.048;2023-04-06T01:14:35;3.87;;;3.20;;
6785;SDS011;3430;51.192;6.048;2023-04-06T01:17:01;4.90;;;2.60;;
6785;SDS011;3430;51.192;6.048;2023-04-06T01:19:26;4.17;;;3.10;;
6785;SDS011;3430;51.192;6.048;2023-04-06T01:21:51;3.10;;;2.80;;
6785;SDS011;3430;51.192;6.048;2023-04-06T01:24:18;4.03;;;3.13;;
6785;SDS011;3430;51.192;6.048;2023-04-06T01:26:43;5.90;;;3.40;;
6785;SDS011;3430;51.192;6.048;2023-04-06T01:29:09;4.60;;;3.33;;
6785;SDS011;3430;51.192;6.048;2023-04-06T01:31:34;3.93;;;3.20;;
6785;SDS011;3430;51.192;6.048;2023-04-06T01:34:00;3.50;;;2.80;;
6785;SDS011;3430;51.192;6.048;2023-04-06T01:36:25;6.07;;;3.33;;
6785;SDS011;3430;51.192;6.048;2023-04-06T01:38:50;3.37;;;2.97;;
6785;SDS011;3430;51.192;6.048;2023-04-06T01:41:16;3.17;;;2.90;;
6785;SDS011;3430;51.192;6.048;2023-04-06T01:43:41;4.30;;;3.07;;
6785;SDS011;3430;51.192;6.048;2023-04-06T01:46:06;4.97;;;3.17;;
6785;SDS011;3430;51.192;6.048;2023-04-06T01:48:31;3.60;;;3.30;;
6785;SDS011;3430;51.192;6.048;2023-04-06T01:50:57;3.40;;;3.10;;
6785;SDS011;3430;51.192;6.048;2023-04-06T01:53:22;4.80;;;3.27;;
6785;SDS011;3430;51.192;6.048;2023-04-06T01:55:47;4.77;;;3.00;;
6785;SDS011;3430;51.192;6.048;2023-04-06T01:58:13;3.10;;;2.83;;
6785;SDS011;3430;51.192;6.048;2023-04-06T02:00:38;4.57;;;2.97;;
6785;SDS011;3430;51.192;6.048;2023-04-06T02:03:03;3.37;;;3.07;;
6785;SDS011;3430;51.192;6.048;2023-04-06T02:05:29;4.30;;;2.80;;
6785;SDS011;3430;51.192;6.048;2023-04-06T02:07:55;4.73;;;3.20;;
6785;SDS011;3430;51.192;6.048;2023-04-06T02:10:21;2.97;;;2.77;;
6785;SDS011;3430;51.192;6.048;2023-04-06T02:12:47;4.30;;;2.97;;
6785;SDS011;3430;51.192;6.048;2023-04-06T02:15:12;3.70;;;3.33;;
6785;SDS011;3430;51.192;6.048;2023-04-06T02:17:38;3.70;;;3.30;;
6785;SDS011;3430;51.192;6.048;2023-04-06T02:20:04;3.50;;;3.10;;
6785;SDS011;3430;51.192;6.048;2023-04-06T02:22:29;3.63;;;3.17;;
6785;SDS011;3430;51.192;6.048;2023-04-06T02:24:55;3.13;;;2.77;;
6785;SDS011;3430;51.192;6.048;2023-04-06T02:27:20;3.93;;;3.50;;
6785;SDS011;3430;51.192;6.048;2023-04-06T02:29:46;3.30;;;3.00;;
6785;SDS011;3430;51.192;6.048;2023-04-06T02:32:11;3.47;;;3.17;;
6785;SDS011;3430;51.192;6.048;2023-04-06T02:34:37;3.23;;;2.93;;
6785;SDS011;3430;51.192;6.048;2023-04-06T02:37:02;3.47;;;2.90;;
6785;SDS011;3430;51.192;6.048;2023-04-06T02:39:27;4.10;;;3.00;;
6785;SDS011;3430;51.192;6.048;2023-04-06T02:41:53;3.77;;;3.43;;
6785;SDS011;3430;51.192;6.048;2023-04-06T02:44:18;3.33;;;2.93;;
6785;SDS011;3430;51.192;6.048;2023-04-06T02:46:43;4.07;;;3.23;;
6785;SDS011;3430;51.192;6.048;2023-04-06T02:49:09;4.67;;;3.37;;
6785;SDS011;3430;51.192;6.048;2023-04-06T02:51:34;4.20;;;3.30;;
6785;SDS011;3430;51.192;6.048;2023-04-06T02:54:00;3.67;;;3.27;;
6785;SDS011;3430;51.192;6.048;2023-04-06T02:56:25;3.50;;;2.90;;
6785;SDS011;3430;51.192;6.048;2023-04-06T02:58:51;3.30;;;3.00;;
6785;SDS011;3430;51.192;6.048;2023-04-06T03:01:16;4.07;;;3.57;;
6785;SDS011;3430;51.192;6.048;2023-04-06T03:03:42;3.93;;;3.53;;
6785;SDS011;3430;51.192;6.048;2023-04-06T03:06:07;3.80;;;3.50;;
6785;SDS011;3430;51.192;6.048;2023-04-06T03:08:33;4.23;;;3.40;;
6785;SDS011;3430;51.192;6.048;2023-04-06T03:10:58;4.10;;;3.50;;
6785;SDS011;3430;51.192;6.048;2023-04-06T03:13:23;3.27;;;2.87;;
6785;SDS011;3430;51.192;6.048;2023-04-06T03:15:49;6.37;;;3.20;;
6785;SDS011;3430;51.192;6.048;2023-04-06T03:18:14;3.40;;;3.00;;
6785;SDS011;3430;51.192;6.048;2023-04-06T03:20:40;3.70;;;3.20;;
6785;SDS011;3430;51.192;6.048;2023-04-06T03:23:05;6.03;;;3.23;;
6785;SDS011;3430;51.192;6.048;2023-04-06T03:25:31;4.00;;;3.60;;
6785;SDS011;3430;51.192;6.048;2023-04-06T03:27:56;3.40;;;3.10;;
6785;SDS011;3430;51.192;6.048;2023-04-06T03:30:21;4.27;;;3.50;;
6785;SDS011;3430;51.192;6.048;2023-04-06T03:32:46;4.77;;;3.07;;
6785;SDS011;3430;51.192;6.048;2023-04-06T03:35:12;5.43;;;3.30;;
6785;SDS011;3430;51.192;6.048;2023-04-06T03:37:37;4.83;;;3.43;;
6785;SDS011;3430;51.192;6.048;2023-04-06T03:40:02;3.83;;;3.37;;
6785;SDS011;3430;51.192;6.048;2023-04-06T03:42:28;3.60;;;3.30;;
6785;SDS011;3430;51.192;6.048;2023-04-06T03:44:53;5.00;;;3.43;;
6785;SDS011;3430;51.192;6.048;2023-04-06T03:47:19;4.97;;;3.23;;
6785;SDS011;3430;51.192;6.048;2023-04-06T03:49:44;3.87;;;3.33;;
6785;SDS011;3430;51.192;6.048;2023-04-06T03:52:09;5.87;;;3.70;;
6785;SDS011;3430;51.192;6.048;2023-04-06T03:54:35;4.63;;;3.10;;
6785;SDS011;3430;51.192;6.048;2023-04-06T03:57:01;4.80;;;3.37;;
6785;SDS011;3430;51.192;6.048;2023-04-06T03:59:26;3.43;;;2.90;;
6785;SDS011;3430;51.192;6.048;2023-04-06T04:01:52;3.83;;;3.53;;
6785;SDS011;3430;51.192;6.048;2023-04-06T04:04:17;6.03;;;3.40;;
6785;SDS011;3430;51.192;6.048;2023-04-06T04:06:42;4.30;;;3.13;;
6785;SDS011;3430;51.192;6.048;2023-04-06T04:09:08;3.57;;;3.27;;
6785;SDS011;3430;51.192;6.048;2023-04-06T04:11:33;4.50;;;3.33;;
6785;SDS011;3430;51.192;6.048;2023-04-06T04:13:58;3.83;;;3.30;;
6785;SDS011;3430;51.192;6.048;2023-04-06T04:16:23;4.53;;;3.93;;
6785;SDS011;3430;51.192;6.048;2023-04-06T04:18:49;3.70;;;3.00;;
6785;SDS011;3430;51.192;6.048;2023-04-06T04:21:14;5.67;;;3.20;;
6785;SDS011;3430;51.192;6.048;2023-04-06T04:23:39;4.43;;;4.03;;
6785;SDS011;3430;51.192;6.048;2023-04-06T04:26:05;3.77;;;3.37;;
6785;SDS011;3430;51.192;6.048;2023-04-06T04:28:30;3.70;;;3.30;;
6785;SDS011;3430;51.192;6.048;2023-04-06T04:30:56;5.80;;;3.33;;
6785;SDS011;3430;51.192;6.048;2023-04-06T04:33:21;4.23;;;3.43;;
6785;SDS011;3430;51.192;6.048;2023-04-06T04:35:46;5.03;;;3.60;;
6785;SDS011;3430;51.192;6.048;2023-04-06T04:38:12;5.37;;;4.10;;
6785;SDS011;3430;51.192;6.048;2023-04-06T04:40:37;4.10;;;3.27;;
6785;SDS011;3430;51.192;6.048;2023-04-06T04:43:02;3.63;;;3.33;;
6785;SDS011;3430;51.192;6.048;2023-04-06T04:45:27;3.87;;;2.93;;
6785;SDS011;3430;51.192;6.048;2023-04-06T04:47:53;5.90;;;3.80;;
6785;SDS011;3430;51.192;6.048;2023-04-06T04:50:18;3.33;;;3.03;;
6785;SDS011;3430;51.192;6.048;2023-04-06T04:52:43;6.43;;;3.80;;
6785;SDS011;3430;51.192;6.048;2023-04-06T04:55:09;7.07;;;3.93;;
6785;SDS011;3430;51.192;6.048;2023-04-06T04:57:34;3.93;;;3.13;;
6785;SDS011;3430;51.192;6.048;2023-04-06T04:59:59;4.20;;;3.40;;
6785;SDS011;3430;51.192;6.048;2023-04-06T05:02:25;4.87;;;3.63;;
6785;SDS011;3430;51.192;6.048;2023-04-06T05:04:50;5.53;;;3.63;;
6785;SDS011;3430;51.192;6.048;2023-04-06T05:07:15;3.43;;;3.03;;
6785;SDS011;3430;51.192;6.048;2023-04-06T05:09:43;4.03;;;3.63;;
6785;SDS011;3430;51.192;6.048;2023-04-06T05:12:09;4.00;;;3.60;;
6785;SDS011;3430;51.192;6.048;2023-04-06T05:14:34;4.17;;;3.20;;
6785;SDS011;3430;51.192;6.048;2023-04-06T05:17:01;4.37;;;3.97;;
6785;SDS011;3430;51.192;6.048;2023-04-06T05:19:26;6.13;;;3.60;;
6785;SDS011;3430;51.192;6.048;2023-04-06T05:21:52;4.97;;;3.60;;
6785;SDS011;3430;51.192;6.048;2023-04-06T05:24:17;8.50;;;3.53;;
6785;SDS011;3430;51.192;6.048;2023-04-06T05:26:42;4.07;;;3.50;;
6785;SDS011;3430;51.192;6.048;2023-04-06T05:29:07;4.63;;;3.87;;
6785;SDS011;3430;51.192;6.048;2023-04-06T05:31:33;6.37;;;3.83;;
6785;SDS011;3430;51.192;6.048;2023-04-06T05:33:58;4.80;;;3.60;;
6785;SDS011;3430;51.192;6.048;2023-04-06T05:36:24;4.67;;;3.27;;
6785;SDS011;3430;51.192;6.048;2023-04-06T05:38:49;4.37;;;3.30;;
6785;SDS011;3430;51.192;6.048;2023-04-06T05:41:17;4.10;;;3.63;;
6785;SDS011;3430;51.192;6.048;2023-04-06T05:43:43;3.77;;;3.20;;
6785;SDS011;3430;51.192;6.048;2023-04-06T05:46:08;6.87;;;4.37;;
6785;SDS011;3430;51.192;6.048;2023-04-06T05:48:33;6.60;;;4.00;;
6785;SDS011;3430;51.192;6.048;2023-04-06T05:50:58;4.93;;;3.50;;
6785;SDS011;3430;51.192;6.048;2023-04-06T05:53:24;4.67;;;3.90;;
6785;SDS011;3430;51.192;6.048;2023-04-06T05:55:51;3.83;;;3.43;;
6785;SDS011;3430;51.192;6.048;2023-04-06T05:58:16;3.73;;;3.33;;
6785;SDS011;3430;51.192;6.048;2023-04-06T06:00:42;6.50;;;4.30;;
6785;SDS011;3430;51.192;6.048;2023-04-06T06:03:07;5.47;;;3.90;;
6785;SDS011;3430;51.192;6.048;2023-04-06T06:05:33;3.77;;;3.23;;
6785;SDS011;3430;51.192;6.048;2023-04-06T06:07:58;4.63;;;3.57;;
6785;SDS011;3430;51.192;6.048;2023-04-06T06:10:27;4.57;;;3.47;;
6785;SDS011;3430;51.192;6.048;2023-04-06T06:12:52;4.87;;;3.60;;
6785;SDS011;3430;51.192;6.048;2023-04-06T06:15:20;6.00;;;3.97;;
6785;SDS011;3430;51.192;6.048;2023-04-06T06:17:45;4.07;;;3.50;;
6785;SDS011;3430;51.192;6.048;2023-04-06T06:20:11;3.73;;;3.20;;
6785;SDS011;3430;51.192;6.048;2023-04-06T06:22:36;4.87;;;3.60;;
6785;SDS011;3430;51.192;6.048;2023-04-06T06:25:02;6.00;;;4.20;;
6785;SDS011;3430;51.192;6.048;2023-04-06T06:27:27;4.70;;;3.60;;
6785;SDS011;3430;51.192;6.048;2023-04-06T06:29:53;5.13;;;3.63;;
6785;SDS011;3430;51.192;6.048;2023-04-06T06:32:18;7.07;;;4.00;;
6785;SDS011;3430;51.192;6.048;2023-04-06T06:34:43;5.67;;;3.63;;
6785;SDS011;3430;51.192;6.048;2023-04-06T06:37:09;5.17;;;4.27;;
6785;SDS011;3430;51.192;6.048;2023-04-06T06:39:34;6.10;;;4.13;;
6785;SDS011;3430;51.192;6.048;2023-04-06T06:42:00;5.40;;;4.17;;
6785;SDS011;3430;51.192;6.048;2023-04-06T06:44:26;4.97;;;3.90;;
6785;SDS011;3430;51.192;6.048;2023-04-06T06:46:52;7.30;;;4.13;;
6785;SDS011;3430;51.192;6.048;2023-04-06T06:49:17;4.23;;;3.77;;
6785;SDS011;3430;51.192;6.048;2023-04-06T06:51:45;6.43;;;4.07;;
6785;SDS011;3430;51.192;6.048;2023-04-06T06:54:11;5.47;;;4.13;;
6785;SDS011;3430;51.192;6.048;2023-04-06T06:56:36;6.10;;;4.50;;
6785;SDS011;3430;51.192;6.048;2023-04-06T06:59:03;6.17;;;5.03;;
6785;SDS011;3430;51.192;6.048;2023-04-06T07:01:28;5.97;;;4.30;;
6785;SDS011;3430;51.192;6.048;2023-04-06T07:03:53;8.67;;;4.43;;
6785;SDS011;3430;51.192;6.048;2023-04-06T07:06:19;6.23;;;4.23;;
6785;SDS011;3430;51.192;6.048;2023-04-06T07:08:45;8.07;;;4.67;;
6785;SDS011;3430;51.192;6.048;2023-04-06T07:11:10;5.83;;;4.80;;
6785;SDS011;3430;51.192;6.048;2023-04-06T07:13:35;6.63;;;5.27;;
6785;SDS011;3430;51.192;6.048;2023-04-06T07:16:01;6.37;;;4.23;;
6785;SDS011;3430;51.192;6.048;2023-04-06T07:18:26;5.23;;;4.13;;
6785;SDS011;3430;51.192;6.048;2023-04-06T07:20:51;6.33;;;4.50;;
6785;SDS011;3430;51.192;6.048;2023-04-06T07:23:16;7.83;;;5.10;;
6785;SDS011;3430;51.192;6.048;2023-04-06T07:25:42;7.17;;;5.40;;
6785;SDS011;3430;51.192;6.048;2023-04-06T07:28:07;7.80;;;5.37;;
6785;SDS011;3430;51.192;6.048;2023-04-06T07:30:32;7.20;;;5.37;;
6785;SDS011;3430;51.192;6.048;2023-04-06T07:32:58;9.63;;;5.03;;
6785;SDS011;3430;51.192;6.048;2023-04-06T07:35:26;7.73;;;5.70;;
6785;SDS011;3430;51.192;6.048;2023-04-06T07:37:52;9.53;;;5.10;;
6785;SDS011;3430;51.192;6.048;2023-04-06T07:40:17;10.23;;;5.20;;
6785;SDS011;3430;51.192;6.048;2023-04-06T07:42:43;8.37;;;5.47;;
6785;SDS011;3430;51.192;6.048;2023-04-06T07:45:08;7.50;;;5.70;;
6785;SDS011;3430;51.192;6.048;2023-04-06T07:47:33;7.90;;;5.53;;
6785;SDS011;3430;51.192;6.048;2023-04-06T07:49:59;8.17;;;5.93;;
6785;SDS011;3430;51.192;6.048;2023-04-06T07:52:24;8.13;;;5.60;;
6785;SDS011;3430;51.192;6.048;2023-04-06T07:54:50;6.23;;;5.23;;
6785;SDS011;3430;51.192;6.048;2023-04-06T07:57:15;10.30;;;6.53;;
6785;SDS011;3430;51.192;6.048;2023-04-06T07:59:40;9.57;;;6.23;;
6785;SDS011;3430;51.192;6.048;2023-04-06T08:02:06;8.20;;;5.43;;
6785;SDS011;3430;51.192;6.048;2023-04-06T08:04:31;9.20;;;6.07;;
6785;SDS011;3430;51.192;6.048;2023-04-06T08:06:56;8.27;;;6.00;;
6785;SDS011;3430;51.192;6.048;2023-04-06T08:09:21;8.70;;;6.40;;
6785;SDS011;3430;51.192;6.048;2023-04-06T08:11:47;9.83;;;6.67;;
6785;SDS011;3430;51.192;6.048;2023-04-06T08:14:13;8.30;;;6.10;;
6785;SDS011;3430;51.192;6.048;2023-04-06T08:16:40;9.53;;;6.43;;
6785;SDS011;3430;51.192;6.048;2023-04-06T08:19:05;10.30;;;6.40;;
6785;SDS011;3430;51.192;6.048;2023-04-06T08:21:33;9.17;;;6.10;;
6785;SDS011;3430;51.192;6.048;2023-04-06T08:23:58;7.63;;;6.17;;
6785;SDS011;3430;51.192;6.048;2023-04-06T08:26:24;10.10;;;6.37;;
6785;SDS011;3430;51.192;6.048;2023-04-06T08:28:50;11.73;;;8.10;;
6785;SDS011;3430;51.192;6.048;2023-04-06T08:31:15;12.53;;;8.77;;
6785;SDS011;3430;51.192;6.048;2023-04-06T08:33:41;16.10;;;10.37;;
6785;SDS011;3430;51.192;6.048;2023-04-06T08:36:15;15.60;;;9.73;;
6785;SDS011;3430;51.192;6.048;2023-04-06T08:38:41;21.17;;;11.47;;
6785;SDS011;3430;51.192;6.048;2023-04-06T08:41:10;21.70;;;13.13;;
6785;SDS011;3430;51.192;6.048;2023-04-06T08:43:38;26.90;;;16.37;;
6785;SDS011;3430;51.192;6.048;2023-04-06T08:46:06;26.93;;;15.67;;
6785;SDS011;3430;51.192;6.048;2023-04-06T08:48:31;27.60;;;16.13;;
6785;SDS011;3430;51.192;6.048;2023-04-06T08:50:58;21.93;;;14.73;;
6785;SDS011;3430;51.192;6.048;2023-04-06T08:53:24;22.13;;;15.67;;
6785;SDS011;3430;51.192;6.048;2023-04-06T08:55:49;19.90;;;13.93;;
6785;SDS011;3430;51.192;6.048;2023-04-06T08:58:16;21.77;;;14.23;;
6785;SDS011;3430;51.192;6.048;2023-04-06T09:00:41;25.20;;;14.70;;
6785;SDS011;3430;51.192;6.048;2023-04-06T09:03:07;21.90;;;15.30;;
6785;SDS011;3430;51.192;6.048;2023-04-06T09:05:33;22.53;;;13.77;;
6785;SDS011;3430;51.192;6.048;2023-04-06T09:07:58;25.83;;;15.57;;
6785;SDS011;3430;51.192;6.048;2023-04-06T09:10:24;24.67;;;15.27;;
6785;SDS011;3430;51.192;6.048;2023-04-06T09:12:50;26.93;;;14.80;;
6785;SDS011;3430;51.192;6.048;2023-04-06T09:15:20;25.27;;;15.80;;
6785;SDS011;3430;51.192;6.048;2023-04-06T09:17:46;30.33;;;16.93;;
6785;SDS011;3430;51.192;6.048;2023-04-06T09:20:11;25.47;;;16.93;;
6785;SDS011;3430;51.192;6.048;2023-04-06T09:22:37;26.10;;;16.53;;
6785;SDS011;3430;51.192;6.048;2023-04-06T09:25:03;27.17;;;15.57;;
6785;SDS011;3430;51.192;6.048;2023-04-06T09:32:28;26.20;;;15.13;;
6785;SDS011;3430;51.192;6.048;2023-04-06T09:34:53;29.13;;;17.07;;
6785;SDS011;3430;51.192;6.048;2023-04-06T09:37:19;28.47;;;16.00;;
6785;SDS011;3430;51.192;6.048;2023-04-06T09:39:44;26.50;;;16.93;;
6785;SDS011;3430;51.192;6.048;2023-04-06T09:42:11;28.00;;;15.97;;
6785;SDS011;3430;51.192;6.048;2023-04-06T09:44:36;26.03;;;17.40;;
6785;SDS011;3430;51.192;6.048;2023-04-06T09:47:02;28.03;;;16.73;;
6785;SDS011;3430;51.192;6.048;2023-04-06T09:49:31;28.20;;;18.87;;
6785;SDS011;3430;51.192;6.048;2023-04-06T09:52:02;30.23;;;18.23;;
6785;SDS011;3430;51.192;6.048;2023-04-06T09:54:31;28.53;;;18.80;;
6785;SDS011;3430;51.192;6.048;2023-04-06T10:02:20;29.93;;;18.47;;
6785;SDS011;3430;51.192;6.048;2023-04-06T10:04:51;27.93;;;17.87;;
6785;SDS011;3430;51.192;6.048;2023-04-06T10:07:18;29.87;;;18.67;;
6785;SDS011;3430;51.192;6.048;2023-04-06T10:09:44;28.50;;;17.80;;
6785;SDS011;3430;51.192;6.048;2023-04-06T10:12:10;29.03;;;18.83;;
6785;SDS011;3430;51.192;6.048;2023-04-06T10:14:36;29.40;;;17.77;;
6785;SDS011;3430;51.192;6.048;2023-04-06T10:17:03;27.83;;;18.67;;
6785;SDS011;3430;51.192;6.048;2023-04-06T10:19:32;31.13;;;18.60;;
6785;SDS011;3430;51.192;6.048;2023-04-06T10:21:59;30.87;;;19.03;;
6785;SDS011;3430;51.192;6.048;2023-04-06T10:24:25;37.10;;;18.63;;
6785;SDS011;3430;51.192;6.048;2023-04-06T10:26:57;31.40;;;19.20;;
6785;SDS011;3430;51.192;6.048;2023-04-06T10:29:22;31.57;;;19.47;;
6785;SDS011;3430;51.192;6.048;2023-04-06T10:31:49;35.07;;;19.50;;
6785;SDS011;3430;51.192;6.048;2023-04-06T10:34:14;30.37;;;18.47;;
6785;SDS011;3430;51.192;6.048;2023-04-06T10:36:40;28.37;;;19.07;;
6785;SDS011;3430;51.192;6.048;2023-04-06T10:39:05;38.23;;;20.60;;
6785;SDS011;3430;51.192;6.048;2023-04-06T10:41:36;31.17;;;19.87;;
6785;SDS011;3430;51.192;6.048;2023-04-06T10:44:02;27.20;;;18.53;;
6785;SDS011;3430;51.192;6.048;2023-04-06T10:46:29;33.03;;;18.80;;
6785;SDS011;3430;51.192;6.048;2023-04-06T10:48:54;29.33;;;17.67;;
6785;SDS011;3430;51.192;6.048;2023-04-06T10:51:24;33.27;;;20.47;;
6785;SDS011;3430;51.192;6.048;2023-04-06T10:53:49;32.73;;;19.73;;
6785;SDS011;3430;51.192;6.048;2023-04-06T10:56:16;32.77;;;19.17;;
6785;SDS011;3430;51.192;6.048;2023-04-06T10:58:48;28.23;;;17.87;;
6785;SDS011;3430;51.192;6.048;2023-04-06T11:01:14;30.30;;;19.67;;
6785;SDS011;3430;51.192;6.048;2023-04-06T11:03:47;31.27;;;19.40;;
6785;SDS011;3430;51.192;6.048;2023-04-06T11:06:23;31.47;;;19.03;;
6785;SDS011;3430;51.192;6.048;2023-04-06T11:08:49;31.27;;;19.00;;
6785;SDS011;3430;51.192;6.048;2023-04-06T11:11:15;29.10;;;18.53;;
6785;SDS011;3430;51.192;6.048;2023-04-06T11:13:44;29.37;;;19.17;;
6785;SDS011;3430;51.192;6.048;2023-04-06T11:16:13;35.40;;;20.73;;
6785;SDS011;3430;51.192;6.048;2023-04-06T11:18:46;30.83;;;20.43;;
6785;SDS011;3430;51.192;6.048;2023-04-06T11:21:11;31.43;;;20.97;;
6785;SDS011;3430;51.192;6.048;2023-04-06T11:23:37;37.13;;;20.33;;
6785;SDS011;3430;51.192;6.048;2023-04-06T11:26:02;35.90;;;20.53;;
6785;SDS011;3430;51.192;6.048;2023-04-06T11:28:27;36.33;;;20.20;;
6785;SDS011;3430;51.192;6.048;2023-04-06T11:30:53;31.00;;;20.87;;
6785;SDS011;3430;51.192;6.048;2023-04-06T11:33:21;32.30;;;19.70;;
6785;SDS011;3430;51.192;6.048;2023-04-06T11:35:50;31.90;;;20.47;;
6785;SDS011;3430;51.192;6.048;2023-04-06T11:38:17;39.43;;;20.47;;
6785;SDS011;3430;51.192;6.048;2023-04-06T11:40:43;30.37;;;20.43;;
6785;SDS011;3430;51.192;6.048;2023-04-06T11:43:10;29.13;;;18.77;;
6785;SDS011;3430;51.192;6.048;2023-04-06T11:45:42;33.67;;;19.93;;
6785;SDS011;3430;51.192;6.048;2023-04-06T11:48:19;30.43;;;18.60;;
6785;SDS011;3430;51.192;6.048;2023-04-06T11:50:48;34.63;;;20.20;;
6785;SDS011;3430;51.192;6.048;2023-04-06T11:53:14;32.97;;;19.67;;
6785;SDS011;3430;51.192;6.048;2023-04-06T11:55:39;32.53;;;19.73;;
6785;SDS011;3430;51.192;6.048;2023-04-06T11:58:05;31.50;;;20.03;;
6785;SDS011;3430;51.192;6.048;2023-04-06T12:00:31;26.83;;;18.57;;
6785;SDS011;3430;51.192;6.048;2023-04-06T12:02:59;27.27;;;17.27;;
6785;SDS011;3430;51.192;6.048;2023-04-06T12:05:25;26.57;;;16.97;;
6785;SDS011;3430;51.192;6.048;2023-04-06T12:07:50;26.20;;;17.63;;
6785;SDS011;3430;51.192;6.048;2023-04-06T12:10:15;29.70;;;17.37;;
6785;SDS011;3430;51.192;6.048;2023-04-06T12:12:41;29.03;;;18.67;;
6785;SDS011;3430;51.192;6.048;2023-04-06T12:15:06;32.10;;;18.50;;
6785;SDS011;3430;51.192;6.048;2023-04-06T12:17:32;26.23;;;18.10;;
6785;SDS011;3430;51.192;6.048;2023-04-06T12:19:57;29.07;;;19.37;;
6785;SDS011;3430;51.192;6.048;2023-04-06T12:22:22;26.60;;;17.90;;
6785;SDS011;3430;51.192;6.048;2023-04-06T12:24:47;29.23;;;18.90;;
6785;SDS011;3430;51.192;6.048;2023-04-06T12:27:13;29.03;;;18.10;;
6785;SDS011;3430;51.192;6.048;2023-04-06T12:29:38;29.03;;;18.40;;
6785;SDS011;3430;51.192;6.048;2023-04-06T12:32:04;25.23;;;16.13;;
6785;SDS011;3430;51.192;6.048;2023-04-06T12:34:30;28.17;;;18.47;;
6785;SDS011;3430;51.192;6.048;2023-04-06T12:36:55;25.13;;;17.00;;
6785;SDS011;3430;51.192;6.048;2023-04-06T12:39:21;25.93;;;16.13;;
6785;SDS011;3430;51.192;6.048;2023-04-06T12:41:46;28.50;;;18.33;;
6785;SDS011;3430;51.192;6.048;2023-04-06T12:44:12;24.90;;;17.60;;
6785;SDS011;3430;51.192;6.048;2023-04-06T12:46:37;30.33;;;18.17;;
6785;SDS011;3430;51.192;6.048;2023-04-06T12:49:03;29.87;;;16.90;;
6785;SDS011;3430;51.192;6.048;2023-04-06T12:51:28;27.80;;;17.17;;
6785;SDS011;3430;51.192;6.048;2023-04-06T12:53:53;30.47;;;17.80;;
6785;SDS011;3430;51.192;6.048;2023-04-06T12:56:19;29.17;;;17.27;;
6785;SDS011;3430;51.192;6.048;2023-04-06T12:58:46;25.37;;;16.07;;
6785;SDS011;3430;51.192;6.048;2023-04-06T13:01:11;27.20;;;17.13;;
6785;SDS011;3430;51.192;6.048;2023-04-06T13:03:38;30.97;;;17.37;;
6785;SDS011;3430;51.192;6.048;2023-04-06T13:06:03;27.90;;;16.17;;
6785;SDS011;3430;51.192;6.048;2023-04-06T13:08:28;24.63;;;17.03;;
6785;SDS011;3430;51.192;6.048;2023-04-06T13:10:54;25.13;;;16.20;;
6785;SDS011;3430;51.192;6.048;2023-04-06T13:13:21;25.77;;;16.33;;
6785;SDS011;3430;51.192;6.048;2023-04-06T13:15:47;27.27;;;17.20;;
6785;SDS011;3430;51.192;6.048;2023-04-06T13:18:12;27.37;;;17.13;;
6785;SDS011;3430;51.192;6.048;2023-04-06T13:20:38;28.63;;;17.17;;
6785;SDS011;3430;51.192;6.048;2023-04-06T13:23:03;27.50;;;17.77;;
6785;SDS011;3430;51.192;6.048;2023-04-06T13:25:29;25.03;;;17.07;;
6785;SDS011;3430;51.192;6.048;2023-04-06T13:27:54;24.03;;;16.20;;
6785;SDS011;3430;51.192;6.048;2023-04-06T13:30:20;25.67;;;16.00;;
6785;SDS011;3430;51.192;6.048;2023-04-06T13:32:45;25.97;;;16.10;;
6785;SDS011;3430;51.192;6.048;2023-04-06T13:35:10;25.87;;;16.80;;
6785;SDS011;3430;51.192;6.048;2023-04-06T13:37:36;25.47;;;15.80;;
6785;SDS011;3430;51.192;6.048;2023-04-06T13:40:02;26.10;;;16.43;;
6785;SDS011;3430;51.192;6.048;2023-04-06T13:42:28;23.80;;;15.60;;
6785;SDS011;3430;51.192;6.048;2023-04-06T13:44:53;21.57;;;15.73;;
6785;SDS011;3430;51.192;6.048;2023-04-06T13:47:19;23.07;;;15.37;;
6785;SDS011;3430;51.192;6.048;2023-04-06T13:49:45;26.67;;;16.87;;
6785;SDS011;3430;51.192;6.048;2023-04-06T13:52:11;22.93;;;15.40;;
6785;SDS011;3430;51.192;6.048;2023-04-06T13:54:36;24.43;;;15.33;;
6785;SDS011;3430;51.192;6.048;2023-04-06T13:57:01;26.17;;;15.53;;
6785;SDS011;3430;51.192;6.048;2023-04-06T13:59:36;23.87;;;15.60;;
6785;SDS011;3430;51.192;6.048;2023-04-06T14:02:02;27.77;;;15.83;;
6785;SDS011;3430;51.192;6.048;2023-04-06T14:04:27;24.23;;;15.17;;
6785;SDS011;3430;51.192;6.048;2023-04-06T14:06:53;22.70;;;16.07;;
6785;SDS011;3430;51.192;6.048;2023-04-06T14:09:18;27.83;;;15.77;;
6785;SDS011;3430;51.192;6.048;2023-04-06T14:11:43;25.07;;;15.43;;
6785;SDS011;3430;51.192;6.048;2023-04-06T14:14:08;24.40;;;15.17;;
6785;SDS011;3430;51.192;6.048;2023-04-06T14:16:34;27.10;;;16.10;;
6785;SDS011;3430;51.192;6.048;2023-04-06T14:19:00;34.83;;;17.33;;
6785;SDS011;3430;51.192;6.048;2023-04-06T14:21:25;23.60;;;16.57;;
6785;SDS011;3430;51.192;6.048;2023-04-06T14:23:51;23.37;;;15.87;;
6785;SDS011;3430;51.192;6.048;2023-04-06T14:26:17;21.80;;;15.27;;
6785;SDS011;3430;51.192;6.048;2023-04-06T14:28:42;21.57;;;14.50;;
6785;SDS011;3430;51.192;6.048;2023-04-06T14:31:11;26.97;;;15.63;;
6785;SDS011;3430;51.192;6.048;2023-04-06T14:33:38;25.17;;;14.23;;
6785;SDS011;3430;51.192;6.048;2023-04-06T14:36:03;22.40;;;15.20;;
6785;SDS011;3430;51.192;6.048;2023-04-06T14:38:30;25.40;;;15.37;;
6785;SDS011;3430;51.192;6.048;2023-04-06T14:40:56;20.87;;;14.47;;
6785;SDS011;3430;51.192;6.048;2023-04-06T14:43:21;25.00;;;15.50;;
6785;SDS011;3430;51.192;6.048;2023-04-06T14:45:46;25.90;;;15.97;;
6785;SDS011;3430;51.192;6.048;2023-04-06T14:48:12;27.00;;;15.97;;
6785;SDS011;3430;51.192;6.048;2023-04-06T14:50:37;21.70;;;13.53;;
6785;SDS011;3430;51.192;6.048;2023-04-06T14:53:03;21.40;;;13.97;;
6785;SDS011;3430;51.192;6.048;2023-04-06T14:55:28;21.23;;;14.30;;
6785;SDS011;3430;51.192;6.048;2023-04-06T14:57:53;23.33;;;14.77;;
6785;SDS011;3430;51.192;6.048;2023-04-06T15:00:19;22.13;;;14.93;;
6785;SDS011;3430;51.192;6.048;2023-04-06T15:02:44;23.53;;;14.13;;
6785;SDS011;3430;51.192;6.048;2023-04-06T15:05:09;24.37;;;14.30;;